Airfield :
LOGIN :

Register | Disclaimer

   EN    FR    IT 

 










Legend :    VFR   Marginal VFR   IFR   Intensive IFR   Very Intensive IFR
Visi :
Ceiling :
>= 8 km
>= 3000ft
5 to 8 km
1000 to 3000 ft
1500m to 5 km
500 to 1000 ft
800 to 1500m
200 to 500 ft
< 800m
< 200 ft
Symbols :   Thunderstorms  Fog  Heavy snow  Heavy precipitations  Wind > 20 kt
SIGMETs :     Misc.  Thunderstorms  Icing  Turbulence  Mountain Waves  Volcanic Ashes






- Airport Elevation : 370 ft


EBBE - Beauvechain AB

CURRENT METAR :
  • 200155Z AUTO 21012KT 9999 FEW009/// BKN011/// BKN018/// 07/06 Q1018 GRN

EXPIRED METARs :
  • 200125Z AUTO 21012KT 9999 BKN010/// BKN035/// OVC055/// 07/06 Q1019 GRN
  • 200113Z AUTO 21012KT 9999 SCT011/// BKN031/// OVC055/// 07/06 Q1018 GRN
  • 200055Z AUTO 21013KT 9999 FEW011/// SCT032/// BKN050/// 07/05 Q1019 BLU
  • 200043Z AUTO 21012KT 9999 FEW011/// SCT016/// BKN032/// 07/05 Q1019 WHT
  • 200025Z AUTO 21013KT 9999 FEW010/// SCT014/// BKN021/// 07/05 Q1019 GRN
  • 200003Z AUTO 21014KT 9999 FEW010/// SCT013/// BKN018/// 07/05 Q1019 GRN
  • 192355Z AUTO 21015KT 9999 FEW009/// SCT016/// BKN030/// 07/05 Q1019 WHT
  • 192325Z AUTO 21013KT 9999 FEW008/// SCT011/// BKN020/// 06/05 Q1019 GRN

TAF TAF EBBE
Valid from the 19 at 19:00 until the 20 at 07:00 UTC


191541Z 1919/2007 22013G25KT 9999 BKN025 BKN050
TEMPO 1919/1923 5000 -RA BKN020 BKN040
BECMG 1923/2001 SCT010 BKN050



MET'MAP, your aeronautical weather chart ! - Copyright ORBIFLY December 2007 - Disclaimer

ORBIFLY MET'MAP TEAM :

Programming & Development : Alexandra Zaïnal
Concept & original design : Baudouin d'Aumeries
Assistance for programming : Marc-Olivier Méhu
Technical & hardware support : Manuel Goepfert

Contact : metmap@orbifly.com




SOURCES & CREDITS :

   NOAA